Volga, Kentucky
Current Conditions -  °F | °C
As of 12:15 PM on Thursday 27 Nov 2014 (Local Time) from KSJS Reporting Station
Overcast Overcast  
Wind Chill: 27°   Ceiling: 2100
Heat Index: 33°   Visibility: 10mi
Dew Point: 27°   Wind: 7mph
Humidity: 77%   Direction: 320°NW
Pressure: 30.22"   Gusts: NA
Location:  37.9467°N, 82.8859°W
Report Text: KSJS 271715Z AUTO 32006KT 10SM BKN021 OVC027 01/M03 A3022 RMK AO2 T00071029
Loading
Personal Weather Stations






























Interactive Weather Map New forecast layout! Learn more

10-Day Weather Forecast

Advertisements
Track Severe Weather on mobile